createdAt,value
2022-10-20T00:01:09.713Z,100.00
2022-10-20T00:11:16.483Z,100.00
2022-10-20T00:21:26.107Z,100.00
2022-10-20T00:31:29.648Z,100.00
2022-10-20T00:41:34.372Z,100.00
2022-10-20T00:51:37.678Z,100.00
2022-10-20T01:01:40.569Z,100.00
2022-10-20T01:11:45.659Z,100.00
2022-10-20T01:22:25.633Z,100.00
2022-10-20T01:32:46.370Z,100.00
2022-10-20T01:42:52.158Z,100.00
2022-10-20T01:52:59.958Z,100.00
2022-10-20T02:03:39.627Z,100.00
2022-10-20T02:13:42.622Z,100.00
2022-10-20T02:23:50.946Z,100.00
2022-10-20T02:33:55.168Z,100.00
2022-10-20T02:43:59.120Z,100.00
2022-10-20T02:54:01.656Z,100.00
2022-10-20T03:04:03.759Z,100.00
2022-10-20T03:14:05.890Z,100.00
2022-10-20T03:24:14.686Z,100.00
2022-10-20T03:34:16.689Z,100.00
2022-10-20T03:44:18.845Z,100.00
2022-10-20T03:54:23.409Z,100.00
2022-10-20T04:04:26.581Z,100.00
2022-10-20T04:14:33.212Z,100.00
2022-10-20T04:24:38.329Z,100.00
2022-10-20T04:34:43.254Z,100.00
2022-10-20T04:44:48.193Z,100.00
2022-10-20T04:54:59.844Z,100.00
2022-10-20T05:05:01.993Z,100.00
2022-10-20T05:15:09.244Z,100.00
2022-10-20T05:25:35.012Z,100.00
2022-10-20T05:35:35.835Z,100.00
2022-10-20T05:45:40.404Z,100.00
2022-10-20T05:55:42.572Z,100.00
2022-10-20T06:05:49.195Z,100.00
2022-10-20T06:16:04.408Z,100.00
2022-10-20T06:26:19.527Z,98.10
2022-10-20T06:36:23.818Z,95.19
2022-10-20T06:46:35.073Z,91.78
2022-10-20T06:56:37.718Z,90.77
2022-10-20T07:06:49.907Z,90.21
2022-10-20T07:17:01.430Z,89.56
2022-10-20T07:27:08.135Z,88.03
2022-10-20T07:37:20.678Z,83.24
2022-10-20T07:47:26.377Z,84.71
2022-10-20T07:57:31.258Z,83.18
2022-10-20T08:07:33.519Z,81.05
2022-10-20T08:17:37.877Z,81.43
2022-10-20T08:27:40.132Z,78.39
2022-10-20T08:37:46.340Z,84.52
2022-10-20T08:47:59.420Z,78.58
2022-10-20T08:58:03.283Z,74.33
2022-10-20T09:08:05.511Z,78.18
2022-10-20T09:18:12.415Z,77.25
2022-10-20T09:28:34.842Z,73.73
2022-10-20T09:38:47.409Z,75.83
2022-10-20T09:48:56.252Z,74.66
2022-10-20T09:59:15.021Z,71.15
2022-10-20T10:09:26.678Z,70.11
2022-10-20T10:19:33.466Z,68.90
2022-10-20T10:29:38.414Z,66.17
2022-10-20T10:39:45.592Z,63.02
2022-10-20T10:49:57.287Z,58.29
2022-10-20T11:00:04.155Z,60.85
2022-10-20T11:10:06.272Z,59.73
2022-10-20T11:20:19.823Z,59.17
2022-10-20T11:30:24.093Z,57.85
2022-10-20T11:40:32.341Z,60.28
2022-10-20T11:50:40.655Z,61.02
2022-10-20T12:01:02.569Z,60.32
2022-10-20T12:11:18.848Z,57.79
2022-10-20T12:21:57.179Z,53.64
2022-10-20T12:32:37.080Z,53.98
2022-10-20T12:42:53.277Z,54.48
2022-10-20T12:52:56.411Z,54.33
2022-10-20T13:03:01.647Z,53.08
2022-10-20T13:13:04.581Z,53.87
2022-10-20T13:23:11.795Z,52.17
2022-10-20T13:34:06.231Z,51.87
2022-10-20T13:44:37.386Z,52.38
2022-10-20T13:54:47.009Z,52.53
2022-10-20T14:05:05.873Z,53.13
2022-10-20T14:15:10.247Z,55.01
2022-10-20T14:25:15.248Z,54.52
2022-10-20T14:35:55.342Z,57.17
2022-10-20T14:46:00.469Z,55.49
2022-10-20T14:56:23.027Z,56.16
2022-10-20T15:06:29.511Z,55.57
2022-10-20T15:16:43.312Z,55.73
2022-10-20T15:26:48.329Z,56.33
2022-10-20T15:36:51.188Z,59.03
2022-10-20T15:46:58.459Z,60.88
2022-10-20T15:57:02.728Z,61.08
2022-10-20T16:07:06.419Z,61.36
2022-10-20T16:17:10.963Z,61.37
2022-10-20T16:27:13.504Z,62.65
2022-10-20T16:37:18.279Z,62.04
2022-10-20T16:47:21.076Z,63.78
2022-10-20T16:57:24.301Z,64.00
2022-10-20T17:07:31.743Z,64.78
2022-10-20T17:17:36.515Z,61.87
2022-10-20T17:27:38.952Z,65.74
2022-10-20T17:37:43.630Z,66.68
2022-10-20T17:47:52.318Z,62.13
2022-10-20T17:57:57.175Z,64.74
2022-10-20T18:08:05.427Z,69.37
2022-10-20T18:18:10.828Z,71.36
2022-10-20T18:28:13.256Z,74.29
2022-10-20T18:38:17.672Z,72.00
2022-10-20T18:48:20.767Z,71.95
2022-10-20T18:58:22.933Z,72.04
2022-10-20T19:08:30.741Z,67.00
2022-10-20T19:18:35.669Z,66.95
2022-10-20T19:28:45.465Z,67.12
2022-10-20T19:38:49.946Z,66.43
2022-10-20T21:34:45.875Z,92.42
2022-10-20T22:48:46.453Z,100.00
2022-10-20T22:58:52.121Z,100.00
2022-10-20T23:08:56.197Z,100.00
2022-10-20T23:19:01.063Z,100.00
2022-10-20T23:29:09.053Z,100.00
2022-10-20T23:39:20.454Z,100.00
2022-10-20T23:49:22.898Z,100.00
2022-10-20T23:59:29.702Z,100.00
